Time;durP1;ratioP1;P1;durP2;ratioP2;P2;SDS_P1;SDS_P2;PMS_P1;PMS_P2;Temp;Humidity;BMP_temperature;BMP_pressure;BME280_temperature;BME280_humidity;BME280_pressure;Samples;Min_cycle;Max_cycle;Signal;HPM_P1;HPM_P2
2023/11/03 00:01:50;;;;;;;;;;;;;;;18.60;nan;98647.91;5067634;28;19928;-87
2023/11/03 00:04:16;;;;;;;;;;;;;;;18.58;nan;98629.28;5062590;28;19930;-89
2023/11/03 00:06:43;;;;;;;;;;;;;;;18.56;nan;98617.22;5059593;28;19939;-88
2023/11/03 00:09:08;;;;;;;;;;;;;;;18.55;nan;98612.94;5062700;28;19927;-88
2023/11/03 00:11:35;;;;;;;;;;;;;;;18.54;nan;98598.59;5065028;28;19916;-89
2023/11/03 00:14:02;;;;;;;;;;;;;;;18.55;nan;98591.25;5062465;28;19923;-88
2023/11/03 00:16:28;;;;;;;;;;;;;;;18.54;nan;98600.53;5065535;28;20667;-88
2023/11/03 00:18:57;;;;;;;;;;;;;;;18.54;nan;98617.56;5062638;28;19924;-88
2023/11/03 00:21:23;;;;;;;;;;;;;;;18.50;nan;98624.06;5066750;28;19928;-88
2023/11/03 00:23:48;;;;;;;;;;;;;;;18.50;nan;98649.25;5065339;28;19924;-89
2023/11/03 00:26:14;;;;;;;;;;;;;;;18.49;nan;98647.69;5065387;28;20002;-88
2023/11/03 00:28:40;;;;;;;;;;;;;;;18.50;nan;98651.97;5061110;28;20126;-89
2023/11/03 00:31:06;;;;;;;;;;;;;;;18.51;nan;98650.03;5065654;28;19947;-88
2023/11/03 00:33:31;;;;;;;;;;;;;;;18.50;nan;98643.03;5065648;28;20304;-88
2023/11/03 00:35:57;;;;;;;;;;;;;;;18.55;nan;98634.63;5061360;28;19970;-88
2023/11/03 00:38:22;;;;;;;;;;;;;;;18.53;nan;98636.91;5061860;28;19978;-88
2023/11/03 00:40:48;;;;;;;;;;;;;;;18.49;nan;98631.41;5063693;28;19916;-88
2023/11/03 00:43:14;;;;;;;;;;;;;;;18.48;nan;98618.19;5063135;28;19974;-89
2023/11/03 00:45:39;;;;;;;;;;;;;;;18.45;nan;98613.47;5068477;28;19973;-89
2023/11/03 00:48:05;;;;;;;;;;;;;;;18.42;nan;98604.09;5065495;28;20552;-89
2023/11/03 00:50:30;;;;;;;;;;;;;;;18.40;nan;98601.75;5063789;28;19916;-87
2023/11/03 00:52:56;;;;;;;;;;;;;;;18.40;nan;98606.38;5063800;28;19927;-88
2023/11/03 00:55:21;;;;;;;;;;;;;;;18.39;nan;98613.75;5059208;28;20048;-88
2023/11/03 00:57:47;;;;;;;;;;;;;;;18.41;nan;98616.88;5059482;28;19927;-88
2023/11/03 01:00:13;;;;;;;;;;;;;;;18.45;nan;98632.44;5061723;28;19999;-88
2023/11/03 01:02:41;;;;;;;;;;;;;;;18.45;nan;98637.88;5065946;28;19985;-88
2023/11/03 01:05:07;;;;;;;;;;;;;;;18.41;nan;98657.56;5064972;28;20408;-87
2023/11/03 01:07:32;;;;;;;;;;;;;;;18.39;nan;98665.25;5064909;28;19972;-87
2023/11/03 01:09:57;;;;;;;;;;;;;;;18.40;nan;98669.53;5064002;28;20478;-88
2023/11/03 01:12:24;;;;;;;;;;;;;;;18.40;nan;98683.09;5066361;28;19925;-88
2023/11/03 01:14:51;;;;;;;;;;;;;;;18.38;nan;98677.22;5063636;28;19921;-89
2023/11/03 01:17:16;;;;;;;;;;;;;;;18.37;nan;98667.53;5065538;28;19924;-88
2023/11/03 01:19:42;;;;;;;;;;;;;;;18.38;nan;98674.53;5059656;28;19962;-87
2023/11/03 01:22:08;;;;;;;;;;;;;;;18.38;nan;98665.59;5062474;28;19920;-89
2023/11/03 01:24:33;;;;;;;;;;;;;;;18.39;nan;98665.25;5063149;28;20392;-88
2023/11/03 01:26:59;;;;;;;;;;;;;;;18.40;nan;98655.97;5063304;28;20000;-88
2023/11/03 01:29:25;;;;;;;;;;;;;;;18.36;nan;98644.28;5066119;28;19920;-87
2023/11/03 01:31:50;;;;;;;;;;;;;;;18.34;nan;98632.19;5064738;28;19923;-88
2023/11/03 01:34:15;;;;;;;;;;;;;;;18.35;nan;98621.00;5060047;28;19967;-88
2023/11/03 01:36:41;;;;;;;;;;;;;;;18.35;nan;98618.28;5063884;28;19920;-88
2023/11/03 01:39:08;;;;;;;;;;;;;;;18.34;nan;98608.59;5062323;28;20003;-88
2023/11/03 01:41:33;;;;;;;;;;;;;;;18.35;nan;98615.59;5063070;28;20007;-88
2023/11/03 01:44:06;;;;;;;;;;;;;;;18.35;nan;98617.50;5061889;28;20073;-88
2023/11/03 01:46:35;;;;;;;;;;;;;;;18.34;nan;98619.44;5069585;28;19943;-89
2023/11/03 01:49:02;;;;;;;;;;;;;;;18.36;nan;98627.22;5069075;28;19978;-88
2023/11/03 01:51:27;;;;;;;;;;;;;;;18.36;nan;98628.00;5064554;28;20312;-89
2023/11/03 01:53:53;;;;;;;;;;;;;;;18.32;nan;98627.13;5067932;28;19916;-88
2023/11/03 01:56:18;;;;;;;;;;;;;;;18.29;nan;98608.06;5065869;28;19926;-89
2023/11/03 01:58:43;;;;;;;;;;;;;;;18.28;nan;98609.97;5066422;28;19920;-88
2023/11/03 02:01:09;;;;;;;;;;;;;;;18.28;nan;98604.56;5067947;28;19921;-88
2023/11/03 02:03:35;;;;;;;;;;;;;;;18.29;nan;98598.00;5068230;28;19939;-89
2023/11/03 02:06:03;;;;;;;;;;;;;;;18.31;nan;98590.31;5069013;28;20364;-88
2023/11/03 02:08:28;;;;;;;;;;;;;;;18.35;nan;98588.47;5065340;28;19924;-89
2023/11/03 02:10:53;;;;;;;;;;;;;;;18.37;nan;98593.53;5067697;28;20003;-89
2023/11/03 02:13:19;;;;;;;;;;;;;;;18.35;nan;98602.03;5065425;28;20384;-89
2023/11/03 02:15:44;;;;;;;;;;;;;;;18.30;nan;98612.34;5069808;28;19962;-88
2023/11/03 02:18:10;;;;;;;;;;;;;;;18.28;nan;98609.19;5069294;28;19932;-89
2023/11/03 02:20:35;;;;;;;;;;;;;;;18.25;nan;98607.97;5066785;28;19916;-88
2023/11/03 02:23:01;;;;;;;;;;;;;;;18.21;nan;98609.03;5066944;28;19925;-89
2023/11/03 02:25:27;;;;;;;;;;;;;;;18.18;nan;98602.38;5069055;28;19920;-89
2023/11/03 02:27:52;;;;;;;;;;;;;;;18.18;nan;98607.81;5071977;28;19927;-88
2023/11/03 02:30:18;;;;;;;;;;;;;;;18.20;nan;98596.63;5066050;28;20003;-89
2023/11/03 02:32:43;;;;;;;;;;;;;;;18.21;nan;98582.72;5062545;28;20400;-88
2023/11/03 02:35:09;;;;;;;;;;;;;;;18.22;nan;98569.94;5069116;28;19982;-88
2023/11/03 02:37:35;;;;;;;;;;;;;;;18.20;nan;98564.09;5068810;28;20003;-89
2023/11/03 02:40:00;;;;;;;;;;;;;;;18.20;nan;98554.03;5067050;28;20460;-88
2023/11/03 02:42:25;;;;;;;;;;;;;;;18.21;nan;98552.91;5069121;28;19920;-88
2023/11/03 02:44:51;;;;;;;;;;;;;;;18.19;nan;98544.34;5067774;28;19974;-89
2023/11/03 02:47:16;;;;;;;;;;;;;;;18.18;nan;98533.84;5063911;28;20393;-88
2023/11/03 02:49:41;;;;;;;;;;;;;;;18.18;nan;98526.50;5064595;28;19925;-88
2023/11/03 02:52:07;;;;;;;;;;;;;;;18.19;nan;98511.81;5063655;28;19925;-89
2023/11/03 02:54:32;;;;;;;;;;;;;;;18.18;nan;98507.53;5067062;28;20361;-87
2023/11/03 02:56:57;;;;;;;;;;;;;;;18.18;nan;98512.94;5063826;28;20024;-88
2023/11/03 02:59:23;;;;;;;;;;;;;;;18.17;nan;98508.66;5068851;28;19928;-88
2023/11/03 03:01:48;;;;;;;;;;;;;;;18.18;nan;98523.78;5067376;28;20502;-88
2023/11/03 03:04:13;;;;;;;;;;;;;;;18.17;nan;98521.44;5064849;28;19917;-89
2023/11/03 03:06:42;;;;;;;;;;;;;;;18.16;nan;98520.66;5067882;28;19943;-87
2023/11/03 03:09:07;;;;;;;;;;;;;;;18.14;nan;98532.97;5064794;28;19924;-91
2023/11/03 03:11:33;;;;;;;;;;;;;;;18.12;nan;98536.81;5069670;28;20441;-88
2023/11/03 03:13:59;;;;;;;;;;;;;;;18.10;nan;98533.66;5066470;28;20631;-89
2023/11/03 03:16:25;;;;;;;;;;;;;;;18.14;nan;98532.97;5067147;28;19926;-88
2023/11/03 03:18:50;;;;;;;;;;;;;;;18.07;nan;98541.72;5067621;28;19978;-88
2023/11/03 03:21:16;;;;;;;;;;;;;;;18.00;nan;98533.44;5065587;28;19917;-88
2023/11/03 03:23:42;;;;;;;;;;;;;;;17.96;nan;98536.06;5068005;28;19955;-88
2023/11/03 03:26:08;;;;;;;;;;;;;;;17.94;nan;98541.00;5062938;28;19926;-88
2023/11/03 03:28:33;;;;;;;;;;;;;;;17.92;nan;98537.88;5069393;28;19960;-89
2023/11/03 03:30:59;;;;;;;;;;;;;;;17.91;nan;98541.72;5066364;28;19952;-88
2023/11/03 03:33:25;;;;;;;;;;;;;;;17.89;nan;98537.78;5061235;28;19921;-88
2023/11/03 03:35:50;;;;;;;;;;;;;;;17.89;nan;98526.94;5063035;28;19974;-88
2023/11/03 03:38:16;;;;;;;;;;;;;;;17.91;nan;98532.81;5069360;28;19917;-89
2023/11/03 03:40:41;;;;;;;;;;;;;;;17.91;nan;98530.09;5068771;28;20349;-88
2023/11/03 03:43:06;;;;;;;;;;;;;;;17.92;nan;98526.25;5069567;28;20003;-88
2023/11/03 03:45:31;;;;;;;;;;;;;;;17.93;nan;98516.97;5068076;28;19916;-88
2023/11/03 03:47:57;;;;;;;;;;;;;;;17.94;nan;98523.97;5068218;28;20409;-88
2023/11/03 03:50:22;;;;;;;;;;;;;;;17.94;nan;98523.97;5071430;28;19920;-87
2023/11/03 03:52:47;;;;;;;;;;;;;;;17.92;nan;98526.25;5066038;28;19916;-88
2023/11/03 03:55:12;;;;;;;;;;;;;;;17.91;nan;98524.69;5063682;28;19978;-87
2023/11/03 03:57:38;;;;;;;;;;;;;;;17.87;nan;98518.41;5064770;28;19921;-87
2023/11/03 04:00:03;;;;;;;;;;;;;;;17.87;nan;98521.09;5068518;28;20003;-88
2023/11/03 04:02:29;;;;;;;;;;;;;;;17.85;nan;98524.16;5065557;28;19931;-89
2023/11/03 04:04:54;;;;;;;;;;;;;;;17.86;nan;98524.94;5063826;28;19923;-89
2023/11/03 04:07:19;;;;;;;;;;;;;;;17.82;nan;98516.75;5065720;28;19931;-87
2023/11/03 04:09:45;;;;;;;;;;;;;;;17.81;nan;98515.16;5065761;28;19967;-88
2023/11/03 04:12:10;;;;;;;;;;;;;;;17.79;nan;98512.81;5068162;28;19961;-88
2023/11/03 04:14:35;;;;;;;;;;;;;;;17.79;nan;98507.41;5067576;28;20529;-88
2023/11/03 04:17:01;;;;;;;;;;;;;;;17.75;nan;98517.34;5069581;28;19987;-88
2023/11/03 04:19:26;;;;;;;;;;;;;;;17.75;nan;98511.13;5064806;28;20048;-89
2023/11/03 04:21:51;;;;;;;;;;;;;;;17.75;nan;98517.34;5064689;28;19916;-88
2023/11/03 04:24:16;;;;;;;;;;;;;;;17.73;nan;98508.78;5064282;28;20042;-89
2023/11/03 04:26:42;;;;;;;;;;;;;;;17.72;nan;98504.50;5069024;28;19916;-88
2023/11/03 04:29:07;;;;;;;;;;;;;;;17.72;nan;98507.19;5067660;28;19955;-88
2023/11/03 04:31:34;;;;;;;;;;;;;;;17.72;nan;98504.50;5063485;28;19924;-87
2023/11/03 04:33:59;;;;;;;;;;;;;;;17.73;nan;98508.00;5065571;28;20421;-88
2023/11/03 04:36:24;;;;;;;;;;;;;;;17.73;nan;98511.47;5068533;28;19921;-87
2023/11/03 04:38:50;;;;;;;;;;;;;;;17.70;nan;98509.47;5068442;28;19924;-88
2023/11/03 04:41:15;;;;;;;;;;;;;;;17.67;nan;98520.97;5064682;28;20369;-88
2023/11/03 04:43:41;;;;;;;;;;;;;;;17.65;nan;98523.25;5065370;28;19916;-87
2023/11/03 04:46:08;;;;;;;;;;;;;;;17.64;nan;98527.09;5068228;28;19920;-87
2023/11/03 04:48:33;;;;;;;;;;;;;;;17.64;nan;98515.47;5065562;28;19939;-88
2023/11/03 04:50:59;;;;;;;;;;;;;;;17.62;nan;98513.13;5065608;28;19920;-88
2023/11/03 04:53:24;;;;;;;;;;;;;;;17.62;nan;98512.34;5062362;28;19924;-87
2023/11/03 04:55:49;;;;;;;;;;;;;;;17.62;nan;98506.94;5064875;28;20382;-87
2023/11/03 04:58:15;;;;;;;;;;;;;;;17.61;nan;98505.34;5063351;28;20338;-87
2023/11/03 05:00:41;;;;;;;;;;;;;;;17.62;nan;98512.34;5064266;28;19959;-87
2023/11/03 05:03:06;;;;;;;;;;;;;;;17.60;nan;98509.97;5064343;28;19943;-88
2023/11/03 05:05:32;;;;;;;;;;;;;;;17.59;nan;98513.81;5063690;28;19924;-87
2023/11/03 05:07:58;;;;;;;;;;;;;;;17.59;nan;98508.38;5068585;28;19920;-88
2023/11/03 05:10:23;;;;;;;;;;;;;;;17.60;nan;98503.78;5064417;28;19995;-87
2023/11/03 05:12:48;;;;;;;;;;;;;;;17.59;nan;98505.69;5059286;28;20063;-87
2023/11/03 05:15:13;;;;;;;;;;;;;;;17.57;nan;98504.47;5059876;28;20284;-87
2023/11/03 05:17:39;;;;;;;;;;;;;;;17.56;nan;98502.88;5064189;28;19925;-87
2023/11/03 05:20:07;;;;;;;;;;;;;;;17.53;nan;98504.38;5066052;28;19928;-87
2023/11/03 05:22:32;;;;;;;;;;;;;;;17.50;nan;98511.28;5066062;28;20543;-87
2023/11/03 05:24:58;;;;;;;;;;;;;;;17.46;nan;98512.31;5069314;28;19916;-88
2023/11/03 05:27:24;;;;;;;;;;;;;;;17.39;nan;98510.19;5064759;28;21728;-87
2023/11/03 05:29:49;;;;;;;;;;;;;;;17.38;nan;98513.25;5064537;28;19931;-88
2023/11/03 05:32:15;;;;;;;;;;;;;;;17.38;nan;98507.84;5063641;28;19924;-87
2023/11/03 05:34:40;;;;;;;;;;;;;;;17.38;nan;98502.44;5068905;28;19921;-88
2023/11/03 05:37:06;;;;;;;;;;;;;;;17.37;nan;98506.28;5066059;28;19922;-88
2023/11/03 05:39:32;;;;;;;;;;;;;;;17.38;nan;98507.84;5066641;28;20458;-88
2023/11/03 05:41:58;;;;;;;;;;;;;;;17.38;nan;98513.25;5065558;28;19940;-88
2023/11/03 05:44:24;;;;;;;;;;;;;;;17.38;nan;98524.09;5070294;28;19916;-87
2023/11/03 05:46:49;;;;;;;;;;;;;;;17.35;nan;98530.97;5065977;28;19924;-88
2023/11/03 05:49:14;;;;;;;;;;;;;;;17.28;nan;98533.50;5065728;28;19985;-87
2023/11/03 05:51:40;;;;;;;;;;;;;;;17.24;nan;98534.56;5066015;28;19927;-88
2023/11/03 05:54:05;;;;;;;;;;;;;;;17.25;nan;98549.66;5069529;28;19917;-87
2023/11/03 05:56:31;;;;;;;;;;;;;;;17.24;nan;98546.16;5069790;28;20494;-88
2023/11/03 05:58:56;;;;;;;;;;;;;;;17.23;nan;98533.75;5066947;28;19923;-87
2023/11/03 06:01:22;;;;;;;;;;;;;;;17.21;nan;98536.78;5069173;28;19928;-88
2023/11/03 06:03:47;;;;;;;;;;;;;;;17.23;nan;98539.16;5065550;28;19924;-87
2023/11/03 06:06:12;;;;;;;;;;;;;;;17.22;nan;98538.38;5065378;28;20074;-87
2023/11/03 06:08:38;;;;;;;;;;;;;;;17.21;nan;98534.09;5064525;28;20123;-87
2023/11/03 06:11:03;;;;;;;;;;;;;;;17.19;nan;98536.34;5062601;28;20282;-87
2023/11/03 06:13:29;;;;;;;;;;;;;;;17.20;nan;98534.44;5067923;28;20388;-88
2023/11/03 06:15:54;;;;;;;;;;;;;;;17.19;nan;98527.44;5065117;28;19923;-87
2023/11/03 06:18:19;;;;;;;;;;;;;;;17.18;nan;98526.66;5065566;28;19935;-88
2023/11/03 06:20:45;;;;;;;;;;;;;;;17.18;nan;98532.06;5068864;28;19927;-88
2023/11/03 06:23:10;;;;;;;;;;;;;;;17.18;nan;98526.66;5063940;28;19928;-88
2023/11/03 06:25:35;;;;;;;;;;;;;;;17.20;nan;98529.81;5068380;28;19922;-89
2023/11/03 06:28:01;;;;;;;;;;;;;;;17.21;nan;98525.19;5064144;28;19917;-88
2023/11/03 06:30:26;;;;;;;;;;;;;;;17.20;nan;98510.88;5067506;28;19967;-88
2023/11/03 06:32:51;;;;;;;;;;;;;;;17.18;nan;98505.00;5064887;28;19912;-87
2023/11/03 06:35:16;;;;;;;;;;;;;;;17.20;nan;98512.78;5066759;28;20315;-88
2023/11/03 06:37:42;;;;;;;;;;;;;;;17.21;nan;98531.38;5070469;28;19923;-88
2023/11/03 06:40:11;;;;;;;;;;;;;;;17.22;nan;98561.94;5068387;28;19912;-89
2023/11/03 06:42:40;;;;;;;;;;;;;;;17.18;nan;98615.97;5070208;28;19952;-88
2023/11/03 06:45:07;;;;;;;;;;;;;;;17.13;nan;98681.16;5065683;28;19913;-88
2023/11/03 06:47:33;;;;;;;;;;;;;;;17.06;nan;98680.16;5067680;28;20067;-88
2023/11/03 06:49:59;;;;;;;;;;;;;;;16.98;nan;98679.13;5067052;28;19987;-88
2023/11/03 06:52:24;;;;;;;;;;;;;;;16.97;nan;98680.28;5068099;28;20336;-88
2023/11/03 06:54:50;;;;;;;;;;;;;;;16.98;nan;98671.03;5067641;28;20368;-86
2023/11/03 06:57:16;;;;;;;;;;;;;;;17.02;nan;98676.53;5064651;28;19960;-87
2023/11/03 06:59:41;;;;;;;;;;;;;;;17.05;nan;98673.16;5063108;28;19917;-88
2023/11/03 07:02:07;;;;;;;;;;;;;;;17.05;nan;98673.16;5065464;28;20074;-88
2023/11/03 07:04:34;;;;;;;;;;;;;;;17.07;nan;98679.03;5064238;28;20489;-87
2023/11/03 07:07:00;;;;;;;;;;;;;;;17.07;nan;98687.94;5071174;28;20579;-87
2023/11/03 07:09:25;;;;;;;;;;;;;;;17.08;nan;98686.81;5072450;28;19920;-87
2023/11/03 07:11:50;;;;;;;;;;;;;;;17.10;nan;98689.94;5072766;28;20007;-88
2023/11/03 07:14:16;;;;;;;;;;;;;;;17.12;nan;98684.97;5064268;28;19916;-88
2023/11/03 07:16:42;;;;;;;;;;;;;;;17.12;nan;98686.91;5062397;28;19917;-87
2023/11/03 07:19:08;;;;;;;;;;;;;;;17.14;nan;98692.75;5070898;28;19947;-87
2023/11/03 07:21:33;;;;;;;;;;;;;;;17.15;nan;98694.34;5067787;28;19920;-87
2023/11/03 07:23:59;;;;;;;;;;;;;;;17.16;nan;98685.09;5073281;28;20544;-88
2023/11/03 07:26:24;;;;;;;;;;;;;;;17.15;nan;98676.19;5070658;28;20449;-88
2023/11/03 07:28:49;;;;;;;;;;;;;;;17.16;nan;98677.75;5067316;28;20370;-88
2023/11/03 07:31:16;;;;;;;;;;;;;;;17.18;nan;98683.59;5067852;28;19931;-87
2023/11/03 07:33:41;;;;;;;;;;;;;;;17.20;nan;98680.56;5069561;28;19974;-88
2023/11/03 07:36:08;;;;;;;;;;;;;;;17.24;nan;98678.78;5067098;28;20391;-87
2023/11/03 07:38:33;;;;;;;;;;;;;;;17.27;nan;98698.94;5070559;28;20308;-88
2023/11/03 07:40:58;;;;;;;;;;;;;;;17.30;nan;98711.78;5069403;28;19920;-87
2023/11/03 07:43:24;;;;;;;;;;;;;;;17.32;nan;98698.69;5066856;28;19925;-87
2023/11/03 07:45:50;;;;;;;;;;;;;;;17.34;nan;98680.19;5069202;28;19964;-88
2023/11/03 07:48:16;;;;;;;;;;;;;;;17.37;nan;98682.22;5063666;28;19931;-88
2023/11/03 07:50:41;;;;;;;;;;;;;;;17.37;nan;98682.22;5065091;28;19917;-87
2023/11/03 07:53:07;;;;;;;;;;;;;;;17.37;nan;98674.88;5069101;28;19978;-87
2023/11/03 07:55:33;;;;;;;;;;;;;;;17.39;nan;98682.66;5062263;28;19917;-88
2023/11/03 07:57:59;;;;;;;;;;;;;;;17.38;nan;98692.69;5064596;28;19920;-87
2023/11/03 08:00:24;;;;;;;;;;;;;;;17.40;nan;98679.59;5064984;28;19931;-88
2023/11/03 08:02:50;;;;;;;;;;;;;;;17.41;nan;98675.75;5073623;28;19920;-87
2023/11/03 08:05:15;;;;;;;;;;;;;;;17.43;nan;98667.31;5062920;28;21672;-87
2023/11/03 08:07:41;;;;;;;;;;;;;;;17.45;nan;98665.84;5074094;28;20008;-87
2023/11/03 08:10:11;;;;;;;;;;;;;;;17.47;nan;98668.22;5066507;28;19943;-88
2023/11/03 08:12:38;;;;;;;;;;;;;;;17.50;nan;98672.94;5071968;28;19916;-88
2023/11/03 08:15:04;;;;;;;;;;;;;;;17.45;nan;98670.47;5065682;28;19916;-88
2023/11/03 08:17:29;;;;;;;;;;;;;;;17.45;nan;98675.88;5068142;28;20006;-88
2023/11/03 08:19:55;;;;;;;;;;;;;;;17.47;nan;98673.63;5069602;28;19920;-87
2023/11/03 08:22:20;;;;;;;;;;;;;;;17.49;nan;98682.97;5067112;28;19917;-88
2023/11/03 08:24:45;;;;;;;;;;;;;;;17.51;nan;98680.69;5065539;28;19924;-88
2023/11/03 08:27:12;;;;;;;;;;;;;;;17.55;nan;98697.03;5068486;28;19943;-87
2023/11/03 08:29:37;;;;;;;;;;;;;;;17.55;nan;98683.50;5065896;28;19921;-88
2023/11/03 08:32:07;;;;;;;;;;;;;;;17.57;nan;98683.16;5061920;28;20225;-88
2023/11/03 08:34:33;;;;;;;;;;;;;;;17.55;nan;98691.63;5082006;28;19935;-87
2023/11/03 08:36:58;;;;;;;;;;;;;;;17.56;nan;98693.19;5070250;28;19917;-88
2023/11/03 08:39:27;;;;;;;;;;;;;;;17.53;nan;98691.97;5065794;28;19919;-88
2023/11/03 08:41:52;;;;;;;;;;;;;;;17.54;nan;98692.75;5067149;28;19955;-87
2023/11/03 08:44:18;;;;;;;;;;;;;;;17.55;nan;98691.63;5069175;28;20388;-88
2023/11/03 08:46:43;;;;;;;;;;;;;;;17.51;nan;98701.56;5071054;28;19916;-87
2023/11/03 08:49:08;;;;;;;;;;;;;;;17.49;nan;98720.09;5067728;28;19928;-87
2023/11/03 08:51:34;;;;;;;;;;;;;;;17.51;nan;98718.59;5069359;28;20003;-88
2023/11/03 08:53:59;;;;;;;;;;;;;;;17.55;nan;98717.91;5070533;28;19916;-88
2023/11/03 08:56:25;;;;;;;;;;;;;;;17.59;nan;98706.06;5062017;28;20380;-87
2023/11/03 08:58:50;;;;;;;;;;;;;;;17.63;nan;98698.06;5065563;28;19917;-88
2023/11/03 09:01:16;;;;;;;;;;;;;;;17.67;nan;98709.75;5068000;28;19943;-88
2023/11/03 09:03:41;;;;;;;;;;;;;;;17.65;nan;98709.31;5066393;28;20011;-88
2023/11/03 09:06:07;;;;;;;;;;;;;;;17.66;nan;98713.59;5071124;28;19925;-88
2023/11/03 09:08:33;;;;;;;;;;;;;;;17.56;nan;98703.25;5065716;28;20391;-88
2023/11/03 09:10:59;;;;;;;;;;;;;;;17.57;nan;98700.19;5070551;28;19920;-87
2023/11/03 09:13:24;;;;;;;;;;;;;;;17.51;nan;98702.38;5065978;28;19924;-87
2023/11/03 09:15:49;;;;;;;;;;;;;;;17.50;nan;98706.19;5070163;28;19921;-88
2023/11/03 09:18:15;;;;;;;;;;;;;;;17.47;nan;98711.53;5071178;28;19924;-89
2023/11/03 09:20:41;;;;;;;;;;;;;;;17.44;nan;98704.88;5069395;28;19924;-89
2023/11/03 09:23:06;;;;;;;;;;;;;;;17.51;nan;98705.06;5066334;28;19916;-88
2023/11/03 09:25:32;;;;;;;;;;;;;;;17.47;nan;98701.47;5066473;28;20233;-89
2023/11/03 09:27:58;;;;;;;;;;;;;;;17.39;nan;98707.00;5067525;28;19964;-88
2023/11/03 09:30:23;;;;;;;;;;;;;;;17.39;nan;98698.91;5066384;28;20017;-88
2023/11/03 09:32:49;;;;;;;;;;;;;;;17.39;nan;98696.19;5068022;28;19956;-88
2023/11/03 09:35:15;;;;;;;;;;;;;;;17.43;nan;98695.19;5067176;28;19920;-89
2023/11/03 09:37:40;;;;;;;;;;;;;;;17.56;nan;98703.25;5067794;28;19921;-88
2023/11/03 09:40:06;;;;;;;;;;;;;;;17.64;nan;98705.81;5072928;28;20121;-89
2023/11/03 09:42:32;;;;;;;;;;;;;;;17.70;nan;98687.44;5073822;28;19920;-88
2023/11/03 09:44:58;;;;;;;;;;;;;;;17.76;nan;98692.25;5065954;28;19916;-89
2023/11/03 09:47:27;;;;;;;;;;;;;;;17.80;nan;98700.50;5066971;28;20007;-88
2023/11/03 09:49:57;;;;;;;;;;;;;;;17.80;nan;98704.00;5069001;28;19936;-89
2023/11/03 09:52:23;;;;;;;;;;;;;;;17.85;nan;98699.44;5072071;28;19923;-89
2023/11/03 09:54:50;;;;;;;;;;;;;;;17.91;nan;98706.97;5069048;28;19916;-89
2023/11/03 09:57:15;;;;;;;;;;;;;;;17.97;nan;98700.19;5062234;28;19924;-89
2023/11/03 09:59:41;;;;;;;;;;;;;;;18.04;nan;98697.66;5063643;28;19917;-89
2023/11/03 10:02:10;;;;;;;;;;;;;;;18.03;nan;98696.09;5067659;28;19920;-89
2023/11/03 10:04:38;;;;;;;;;;;;;;;18.03;nan;98690.66;5068796;28;20525;-89
2023/11/03 10:07:05;;;;;;;;;;;;;;;18.02;nan;98685.59;5075704;28;19916;-88
2023/11/03 10:09:30;;;;;;;;;;;;;;;18.03;nan;98684.47;5076802;28;19920;-89
2023/11/03 10:11:56;;;;;;;;;;;;;;;18.05;nan;98666.72;5075533;28;20280;-89
2023/11/03 10:14:23;;;;;;;;;;;;;;;18.07;nan;98664.44;5068339;28;19937;-89
2023/11/03 10:16:50;;;;;;;;;;;;;;;18.10;nan;98663.75;5071423;28;20490;-89
2023/11/03 10:19:15;;;;;;;;;;;;;;;18.15;nan;98662.72;5070363;28;19923;-87
2023/11/03 10:21:40;;;;;;;;;;;;;;;18.19;nan;98660.88;5077068;28;19925;-89
2023/11/03 10:24:06;;;;;;;;;;;;;;;18.20;nan;98654.31;5072411;28;20023;-88
2023/11/03 10:26:33;;;;;;;;;;;;;;;18.20;nan;98654.31;5067010;28;19916;-90
2023/11/03 10:28:59;;;;;;;;;;;;;;;18.19;nan;98658.16;5066222;28;19931;-89
2023/11/03 10:31:26;;;;;;;;;;;;;;;18.18;nan;98670.16;5072223;28;19920;-89
2023/11/03 10:33:54;;;;;;;;;;;;;;;18.15;nan;98681.69;5067068;28;19920;-89
2023/11/03 10:36:19;;;;;;;;;;;;;;;18.12;nan;98693.19;5073984;28;20407;-89
2023/11/03 10:38:45;;;;;;;;;;;;;;;18.07;nan;98696.16;5071483;28;19919;-89
2023/11/03 10:41:11;;;;;;;;;;;;;;;18.06;nan;98694.59;5074893;28;19920;-89
2023/11/03 10:43:38;;;;;;;;;;;;;;;18.08;nan;98693.13;5069047;28;19912;-88
2023/11/03 10:46:26;;;;;;;;;;;;;;;18.06;nan;98692.69;5075545;28;20018;-89
2023/11/03 10:48:55;;;;;;;;;;;;;;;18.03;nan;98701.50;5068836;28;19921;-90
2023/11/03 10:51:37;;;;;;;;;;;;;;;18.05;nan;98715.50;5067713;28;19927;-89
2023/11/03 10:54:12;;;;;;;;;;;;;;;18.02;nan;98716.19;5071393;28;19982;-89
2023/11/03 10:56:37;;;;;;;;;;;;;;;17.98;nan;98707.19;5073153;28;19917;-89
2023/11/03 10:59:04;;;;;;;;;;;;;;;17.95;nan;98715.19;5071501;28;19916;-89
2023/11/03 11:01:36;;;;;;;;;;;;;;;17.99;nan;98705.25;5067574;28;19916;-88
2023/11/03 11:04:12;;;;;;;;;;;;;;;18.02;nan;98694.50;5067892;28;19960;-88
2023/11/03 11:06:44;;;;;;;;;;;;;;;18.08;nan;98703.94;5067649;28;20391;-89
2023/11/03 11:09:29;;;;;;;;;;;;;;;18.08;nan;98709.38;5069561;28;19980;-89
2023/11/03 11:12:00;;;;;;;;;;;;;;;18.10;nan;98717.16;5065653;28;19927;-88
2023/11/03 11:14:26;;;;;;;;;;;;;;;18.07;nan;98723.28;5062843;28;19968;-89
2023/11/03 11:16:54;;;;;;;;;;;;;;;18.02;nan;98724.31;5066457;28;19987;-89
2023/11/03 11:19:23;;;;;;;;;;;;;;;17.98;nan;98731.56;5068088;28;19920;-88
2023/11/03 11:21:52;;;;;;;;;;;;;;;18.05;nan;98741.81;5066075;28;19928;-89
2023/11/03 11:24:21;;;;;;;;;;;;;;;18.08;nan;98739.19;5063938;28;20000;-89
2023/11/03 11:26:46;;;;;;;;;;;;;;;18.11;nan;98732.28;5064879;28;19920;-87
2023/11/03 11:29:25;;;;;;;;;;;;;;;18.11;nan;98733.06;5070550;28;19927;-87
2023/11/03 11:31:50;;;;;;;;;;;;;;;18.03;nan;98731.31;5068912;28;19966;-87
2023/11/03 11:34:20;;;;;;;;;;;;;;;18.03;nan;98733.22;5070271;28;19928;-89
2023/11/03 11:36:47;;;;;;;;;;;;;;;18.03;nan;98728.59;5066713;28;19917;-88
2023/11/03 11:39:17;;;;;;;;;;;;;;;18.06;nan;98727.91;5072723;28;20292;-87
2023/11/03 11:41:50;;;;;;;;;;;;;;;18.06;nan;98719.00;5065969;28;19967;-88
2023/11/03 11:44:18;;;;;;;;;;;;;;;18.03;nan;98711.56;5070154;28;19912;-88
2023/11/03 11:46:45;;;;;;;;;;;;;;;17.99;nan;98705.25;5066046;28;20007;-88
2023/11/03 11:49:13;;;;;;;;;;;;;;;17.98;nan;98703.69;5072758;28;19993;-88
2023/11/03 11:51:39;;;;;;;;;;;;;;;18.00;nan;98706.84;5071219;28;19966;-88
2023/11/03 11:54:10;;;;;;;;;;;;;;;18.04;nan;98713.13;5066436;28;19920;-88
2023/11/03 11:56:35;;;;;;;;;;;;;;;18.10;nan;98700.91;5064356;28;19917;-89
2023/11/03 11:59:01;;;;;;;;;;;;;;;18.12;nan;98702.13;5073123;28;19920;-89
2023/11/03 12:01:27;;;;;;;;;;;;;;;18.13;nan;98705.63;5065640;28;19920;-88
2023/11/03 12:03:53;;;;;;;;;;;;;;;18.17;nan;98703.81;5073259;28;19920;-88
2023/11/03 12:06:22;;;;;;;;;;;;;;;18.21;nan;98701.97;5067468;28;19923;-89
2023/11/03 12:08:47;;;;;;;;;;;;;;;18.23;nan;98699.69;5069079;28;19929;-89
2023/11/03 12:11:15;;;;;;;;;;;;;;;18.25;nan;98691.22;5067903;28;20388;-88
2023/11/03 12:13:42;;;;;;;;;;;;;;;18.28;nan;98679.66;5078367;28;19929;-88
2023/11/03 12:16:08;;;;;;;;;;;;;;;18.31;nan;98668.94;5070987;28;19917;-88
2023/11/03 12:18:40;;;;;;;;;;;;;;;18.32;nan;98670.50;5072139;28;19916;-88
2023/11/03 12:21:05;;;;;;;;;;;;;;;18.34;nan;98672.88;5070031;28;19955;-89
2023/11/03 12:23:31;;;;;;;;;;;;;;;18.29;nan;98664.97;5068293;28;20346;-88
2023/11/03 12:25:58;;;;;;;;;;;;;;;18.26;nan;98669.19;5072881;28;19912;-89
2023/11/03 12:28:30;;;;;;;;;;;;;;;18.29;nan;98665.75;5066001;28;19928;-89
2023/11/03 12:30:57;;;;;;;;;;;;;;;18.33;nan;98655.03;5065636;28;19955;-89
2023/11/03 12:33:25;;;;;;;;;;;;;;;18.39;nan;98665.25;5073168;28;20297;-88
2023/11/03 12:35:50;;;;;;;;;;;;;;;18.33;nan;98647.69;5072765;28;20489;-90
2023/11/03 12:38:16;;;;;;;;;;;;;;;18.25;nan;98653.25;5070090;28;19920;-89
2023/11/03 12:40:42;;;;;;;;;;;;;;;18.21;nan;98650.47;5065599;28;19917;-88
2023/11/03 12:43:12;;;;;;;;;;;;;;;18.20;nan;98646.19;5070015;28;19931;-89
2023/11/03 12:45:37;;;;;;;;;;;;;;;18.20;nan;98651.59;5067693;28;20296;-88
2023/11/03 12:48:16;;;;;;;;;;;;;;;18.19;nan;98650.03;5063524;28;19928;-88
2023/11/03 12:50:49;;;;;;;;;;;;;;;18.10;nan;98647.47;5081151;28;20046;-89
2023/11/03 12:53:15;;;;;;;;;;;;;;;18.08;nan;98654.38;5069654;28;19923;-88
2023/11/03 12:55:40;;;;;;;;;;;;;;;18.09;nan;98656.75;5066160;28;20449;-89
2023/11/03 12:58:10;;;;;;;;;;;;;;;18.09;nan;98662.16;5071563;28;19924;-89
2023/11/03 13:00:36;;;;;;;;;;;;;;;18.10;nan;98663.75;5064276;28;19922;-88
2023/11/03 13:03:02;;;;;;;;;;;;;;;18.10;nan;98668.38;5064755;28;19916;-89